Time;durP1;ratioP1;P1;durP2;ratioP2;P2;SDS_P1;SDS_P2;PMS_P1;PMS_P2;Temp;Humidity;BMP_temperature;BMP_pressure;BME280_temperature;BME280_humidity;BME280_pressure;Samples;Min_cycle;Max_cycle;Signal;HPM_P1;HPM_P2
2023/04/20 00:01:44;;;;;;;8.50;4.20;;;;;;;;;;5043752;28;20049;-78
2023/04/20 00:04:11;;;;;;;7.80;4.25;;;;;;;;;;5054838;28;20029;-78
2023/04/20 00:06:37;;;;;;;8.05;4.47;;;;;;;;;;5053149;28;20045;-78
2023/04/20 00:09:03;;;;;;;8.98;4.63;;;;;;;;;;5070141;28;20107;-78
2023/04/20 00:11:29;;;;;;;8.38;4.20;;;;;;;;;;5054217;28;20037;-78
2023/04/20 00:13:56;;;;;;;7.57;4.10;;;;;;;;;;5053265;28;20056;-78
2023/04/20 00:16:22;;;;;;;9.13;3.95;;;;;;;;;;5052365;28;20045;-78
2023/04/20 00:18:48;;;;;;;6.63;4.07;;;;;;;;;;5054276;28;20569;-78
2023/04/20 00:21:14;;;;;;;9.85;4.38;;;;;;;;;;5052845;28;20521;-78
2023/04/20 00:23:41;;;;;;;10.95;5.00;;;;;;;;;;5052982;28;20107;-78
2023/04/20 00:26:07;;;;;;;9.90;4.18;;;;;;;;;;5054143;28;20037;-78
2023/04/20 00:28:33;;;;;;;10.05;4.10;;;;;;;;;;5053797;28;20041;-78
2023/04/20 00:30:59;;;;;;;8.45;4.30;;;;;;;;;;5053758;28;20037;-78
2023/04/20 00:33:25;;;;;;;12.05;4.68;;;;;;;;;;5053985;28;20067;-78
2023/04/20 00:35:51;;;;;;;6.80;4.10;;;;;;;;;;5054025;28;20048;-79
2023/04/20 00:38:17;;;;;;;9.00;4.30;;;;;;;;;;5053106;28;20041;-78
2023/04/20 00:40:47;;;;;;;6.63;4.13;;;;;;;;;;5052475;28;20087;-78
2023/04/20 00:43:14;;;;;;;10.57;4.47;;;;;;;;;;5053290;28;20573;-78
2023/04/20 00:45:40;;;;;;;10.73;4.13;;;;;;;;;;5054141;28;20036;-78
2023/04/20 00:48:07;;;;;;;8.15;4.13;;;;;;;;;;5054113;28;20043;-78
2023/04/20 00:50:33;;;;;;;7.10;4.50;;;;;;;;;;5053015;28;20044;-78
2023/04/20 00:53:00;;;;;;;9.43;4.20;;;;;;;;;;5057833;28;20044;-78
2023/04/20 00:55:26;;;;;;;8.13;4.13;;;;;;;;;;5073311;28;20044;-78
2023/04/20 00:57:52;;;;;;;6.80;4.40;;;;;;;;;;5073545;28;20044;-78
2023/04/20 01:00:19;;;;;;;10.55;4.53;;;;;;;;;;5073563;28;20064;-78
2023/04/20 01:02:45;;;;;;;8.07;4.40;;;;;;;;;;5068164;28;20078;-78
2023/04/20 01:05:11;;;;;;;8.40;4.78;;;;;;;;;;5055587;28;20047;-78
2023/04/20 01:07:37;;;;;;;9.65;4.30;;;;;;;;;;5072078;28;20473;-78
2023/04/20 01:10:05;;;;;;;12.75;4.38;;;;;;;;;;5058246;28;20040;-78
2023/04/20 01:12:31;;;;;;;8.82;4.45;;;;;;;;;;5071931;28;20080;-78
2023/04/20 01:14:57;;;;;;;10.10;4.63;;;;;;;;;;5072160;28;20048;-78
2023/04/20 01:17:23;;;;;;;6.93;3.83;;;;;;;;;;5071610;28;20048;-78
2023/04/20 01:19:50;;;;;;;7.15;3.80;;;;;;;;;;5071860;28;20048;-78
2023/04/20 01:22:17;;;;;;;7.00;4.03;;;;;;;;;;5071603;28;20060;-78
2023/04/20 01:24:43;;;;;;;10.45;4.35;;;;;;;;;;5071453;28;20135;-78
2023/04/20 01:27:09;;;;;;;8.55;4.00;;;;;;;;;;5071919;28;20032;-78
2023/04/20 01:29:35;;;;;;;7.65;3.85;;;;;;;;;;5057623;28;20029;-78
2023/04/20 01:32:01;;;;;;;6.65;3.90;;;;;;;;;;5052098;28;20469;-78
2023/04/20 01:34:27;;;;;;;9.18;3.97;;;;;;;;;;5056277;28;20041;-78
2023/04/20 01:36:53;;;;;;;7.97;4.13;;;;;;;;;;5070478;28;20040;-78
2023/04/20 01:39:20;;;;;;;9.68;4.18;;;;;;;;;;5057590;28;20045;-78
2023/04/20 01:41:46;;;;;;;9.80;4.05;;;;;;;;;;5072435;28;20119;-78
2023/04/20 01:44:12;;;;;;;6.45;3.53;;;;;;;;;;5072747;28;20036;-78
2023/04/20 01:46:38;;;;;;;9.00;3.90;;;;;;;;;;5064610;28;20052;-78
2023/04/20 01:49:05;;;;;;;11.63;3.92;;;;;;;;;;5064573;28;20036;-78
2023/04/20 01:51:32;;;;;;;10.50;4.15;;;;;;;;;;5064914;28;20037;-78
2023/04/20 01:53:58;;;;;;;10.18;3.83;;;;;;;;;;5063682;28;20052;-78
2023/04/20 01:56:24;;;;;;;6.85;3.35;;;;;;;;;;5104965;28;20123;-79
2023/04/20 01:58:50;;;;;;;9.05;3.25;;;;;;;;;;5072255;28;20086;-78
2023/04/20 02:01:17;;;;;;;8.73;3.67;;;;;;;;;;5045338;28;20038;-78
2023/04/20 02:03:43;;;;;;;6.63;3.30;;;;;;;;;;5051205;28;20044;-78
2023/04/20 02:06:09;;;;;;;7.25;3.20;;;;;;;;;;5050807;28;20103;-78
2023/04/20 02:08:35;;;;;;;7.15;3.15;;;;;;;;;;5050072;28;20117;-79
2023/04/20 02:11:01;;;;;;;5.65;2.92;;;;;;;;;;5040608;28;20453;-78
2023/04/20 02:13:27;;;;;;;7.93;3.13;;;;;;;;;;5049102;28;20051;-79
2023/04/20 02:15:54;;;;;;;6.55;2.95;;;;;;;;;;5050877;28;20131;-79
2023/04/20 02:18:21;;;;;;;5.57;2.75;;;;;;;;;;5050932;28;20068;-79
2023/04/20 02:20:47;;;;;;;5.72;2.95;;;;;;;;;;5050261;28;20085;-79
2023/04/20 02:23:13;;;;;;;6.63;3.00;;;;;;;;;;5054664;28;20054;-79
2023/04/20 02:25:39;;;;;;;7.50;3.05;;;;;;;;;;5051444;28;20049;-79
2023/04/20 02:28:05;;;;;;;4.18;2.60;;;;;;;;;;5050846;28;20051;-79
2023/04/20 02:30:31;;;;;;;9.13;2.95;;;;;;;;;;5050297;28;20037;-79
2023/04/20 02:32:58;;;;;;;6.05;2.65;;;;;;;;;;5067766;28;20052;-79
2023/04/20 02:35:24;;;;;;;7.07;2.90;;;;;;;;;;5051954;28;20414;-79
2023/04/20 02:37:51;;;;;;;5.10;2.70;;;;;;;;;;5050338;28;20488;-78
2023/04/20 02:40:17;;;;;;;7.03;2.75;;;;;;;;;;5064615;28;20055;-79
2023/04/20 02:42:43;;;;;;;5.50;2.67;;;;;;;;;;5071588;28;20131;-79
2023/04/20 02:45:10;;;;;;;8.68;2.80;;;;;;;;;;5070949;28;20041;-78
2023/04/20 02:47:36;;;;;;;3.90;2.47;;;;;;;;;;5053717;28;20064;-78
2023/04/20 02:50:02;;;;;;;9.32;3.03;;;;;;;;;;5072393;28;20045;-78
2023/04/20 02:52:28;;;;;;;7.75;2.80;;;;;;;;;;5071830;28;20112;-78
2023/04/20 02:54:55;;;;;;;6.50;2.47;;;;;;;;;;5070219;28;20036;-78
2023/04/20 02:57:21;;;;;;;8.00;2.53;;;;;;;;;;5070417;28;20046;-78
2023/04/20 02:59:47;;;;;;;9.02;2.58;;;;;;;;;;5071648;28;20037;-79
2023/04/20 03:02:13;;;;;;;9.52;2.50;;;;;;;;;;5105502;28;20040;-78
2023/04/20 03:04:39;;;;;;;9.55;2.50;;;;;;;;;;5075475;28;20036;-79
2023/04/20 03:07:06;;;;;;;6.80;2.80;;;;;;;;;;5075891;28;20117;-78
2023/04/20 03:09:32;;;;;;;5.53;2.65;;;;;;;;;;5075648;28;20079;-78
2023/04/20 03:11:58;;;;;;;7.65;3.28;;;;;;;;;;5075375;28;20040;-79
2023/04/20 03:14:24;;;;;;;8.02;3.08;;;;;;;;;;5057613;28;20044;-79
2023/04/20 03:16:51;;;;;;;5.13;2.35;;;;;;;;;;5073973;28;20036;-79
2023/04/20 03:19:17;;;;;;;7.03;2.72;;;;;;;;;;5075746;28;20614;-79
2023/04/20 03:21:44;;;;;;;7.30;2.70;;;;;;;;;;5073616;28;20533;-79
2023/04/20 03:24:10;;;;;;;7.90;2.70;;;;;;;;;;5075328;28;20044;-79
2023/04/20 03:26:36;;;;;;;7.53;2.40;;;;;;;;;;5075282;28;20037;-78
2023/04/20 03:29:02;;;;;;;7.97;2.25;;;;;;;;;;5108199;28;20044;-79
2023/04/20 03:31:28;;;;;;;13.05;3.65;;;;;;;;;;5073803;28;20125;-79
2023/04/20 03:33:54;;;;;;;7.78;2.80;;;;;;;;;;5074913;28;20516;-79
2023/04/20 03:36:21;;;;;;;8.25;2.60;;;;;;;;;;5075442;28;20047;-79
2023/04/20 03:38:47;;;;;;;5.00;2.38;;;;;;;;;;5060599;28;20040;-79
2023/04/20 03:41:13;;;;;;;5.90;2.78;;;;;;;;;;5075604;28;20052;-79
2023/04/20 03:43:40;;;;;;;10.20;2.53;;;;;;;;;;5074790;28;20049;-79
2023/04/20 03:46:06;;;;;;;7.50;2.65;;;;;;;;;;5068103;28;20048;-79
2023/04/20 03:48:33;;;;;;;7.75;2.42;;;;;;;;;;5066915;28;20422;-79
2023/04/20 03:50:59;;;;;;;7.22;2.60;;;;;;;;;;5074669;28;20603;-79
2023/04/20 03:53:27;;;;;;;5.38;2.60;;;;;;;;;;5074819;28;20089;-79
2023/04/20 03:55:53;;;;;;;8.35;2.50;;;;;;;;;;5074467;28;20044;-79
2023/04/20 03:58:20;;;;;;;5.57;2.55;;;;;;;;;;5074085;28;20516;-79
2023/04/20 04:00:47;;;;;;;7.55;2.30;;;;;;;;;;5071284;28;20033;-79
2023/04/20 04:03:13;;;;;;;7.85;3.25;;;;;;;;;;5069946;28;20049;-79
2023/04/20 04:05:40;;;;;;;6.32;2.70;;;;;;;;;;5055088;28;20037;-79
2023/04/20 04:08:06;;;;;;;7.45;2.60;;;;;;;;;;5053860;28;20135;-79
2023/04/20 04:10:32;;;;;;;5.80;2.70;;;;;;;;;;5046941;28;20565;-79
2023/04/20 04:12:58;;;;;;;6.20;2.40;;;;;;;;;;5053797;28;20029;-78
2023/04/20 04:15:25;;;;;;;7.75;2.80;;;;;;;;;;5063231;28;20091;-79
2023/04/20 04:17:53;;;;;;;7.13;2.72;;;;;;;;;;5049011;28;20045;-79
2023/04/20 04:20:19;;;;;;;7.93;2.90;;;;;;;;;;5064584;28;21524;-78
2023/04/20 04:22:46;;;;;;;7.90;2.85;;;;;;;;;;5047643;28;20503;-79
2023/04/20 04:25:12;;;;;;;8.60;2.95;;;;;;;;;;5057514;28;20075;-79
2023/04/20 04:27:38;;;;;;;7.38;3.05;;;;;;;;;;5062512;28;20052;-79
2023/04/20 04:30:05;;;;;;;6.35;3.33;;;;;;;;;;5052547;28;20069;-79
2023/04/20 04:32:33;;;;;;;8.23;3.05;;;;;;;;;;5053826;28;20048;-79
2023/04/20 04:35:00;;;;;;;9.90;2.75;;;;;;;;;;5052213;28;20045;-79
2023/04/20 04:37:26;;;;;;;7.50;2.58;;;;;;;;;;5052751;28;20044;-79
2023/04/20 04:39:53;;;;;;;7.05;2.35;;;;;;;;;;5064317;28;20236;-79
2023/04/20 04:42:20;;;;;;;7.20;2.75;;;;;;;;;;5072556;28;20137;-79
2023/04/20 04:44:46;;;;;;;6.40;2.50;;;;;;;;;;5074064;28;20040;-79
2023/04/20 04:47:13;;;;;;;5.97;2.42;;;;;;;;;;5072955;28;20492;-79
2023/04/20 04:49:39;;;;;;;6.47;2.70;;;;;;;;;;5073852;28;20080;-79
2023/04/20 04:52:05;;;;;;;6.53;2.45;;;;;;;;;;5073628;28;20044;-78
2023/04/20 04:54:31;;;;;;;6.93;2.63;;;;;;;;;;5059981;28;20040;-78
2023/04/20 04:56:57;;;;;;;6.88;2.53;;;;;;;;;;5072258;28;20075;-79
2023/04/20 04:59:24;;;;;;;5.85;2.28;;;;;;;;;;5070462;28;20052;-79
2023/04/20 05:01:50;;;;;;;6.88;2.10;;;;;;;;;;5061333;28;20045;-79
2023/04/20 05:04:16;;;;;;;3.88;2.03;;;;;;;;;;5072036;28;20044;-79
2023/04/20 05:06:42;;;;;;;6.20;2.30;;;;;;;;;;5072409;28;20044;-79
2023/04/20 05:09:08;;;;;;;7.43;2.35;;;;;;;;;;5071965;28;20051;-79
2023/04/20 05:11:34;;;;;;;7.07;2.40;;;;;;;;;;5073411;28;20401;-79
2023/04/20 05:14:01;;;;;;;6.72;2.33;;;;;;;;;;5071831;28;20042;-79
2023/04/20 05:16:27;;;;;;;5.72;2.63;;;;;;;;;;5073371;28;20046;-78
2023/04/20 05:18:54;;;;;;;5.28;2.47;;;;;;;;;;5055242;28;20083;-79
2023/04/20 05:21:20;;;;;;;8.25;2.60;;;;;;;;;;5073428;28;20056;-80
2023/04/20 05:23:46;;;;;;;8.25;2.47;;;;;;;;;;5055344;28;20041;-79
2023/04/20 05:26:12;;;;;;;7.63;2.50;;;;;;;;;;5071629;28;20052;-79
2023/04/20 05:28:38;;;;;;;4.57;2.15;;;;;;;;;;5073011;28;20115;-80
2023/04/20 05:31:06;;;;;;;6.97;2.38;;;;;;;;;;5071539;28;20086;-80
2023/04/20 05:33:33;;;;;;;4.50;2.40;;;;;;;;;;5071521;28;20124;-79
2023/04/20 05:35:59;;;;;;;5.28;2.10;;;;;;;;;;5072709;28;20044;-79
2023/04/20 05:38:25;;;;;;;7.18;2.05;;;;;;;;;;5060684;28;20039;-80
2023/04/20 05:40:51;;;;;;;5.32;2.35;;;;;;;;;;5056287;28;20043;-79
2023/04/20 05:43:18;;;;;;;7.85;2.25;;;;;;;;;;5060840;28;20083;-79
2023/04/20 05:45:45;;;;;;;7.82;2.53;;;;;;;;;;5068753;28;20056;-80
2023/04/20 05:48:11;;;;;;;4.90;2.50;;;;;;;;;;5072622;28;20036;-80
2023/04/20 05:50:37;;;;;;;4.70;2.30;;;;;;;;;;5105583;28;20047;-79
2023/04/20 05:53:03;;;;;;;4.57;2.30;;;;;;;;;;5072488;28;20509;-79
2023/04/20 05:55:29;;;;;;;6.75;2.97;;;;;;;;;;5071419;28;20044;-80
2023/04/20 05:57:55;;;;;;;5.78;2.30;;;;;;;;;;5071082;28;20048;-79
2023/04/20 06:00:22;;;;;;;5.15;2.50;;;;;;;;;;5071456;28;20086;-79
2023/04/20 06:02:48;;;;;;;5.68;2.35;;;;;;;;;;5052013;28;20040;-79
2023/04/20 06:05:14;;;;;;;5.65;2.55;;;;;;;;;;5071095;28;20527;-79
2023/04/20 06:07:40;;;;;;;4.57;2.28;;;;;;;;;;5071190;28;20036;-79
2023/04/20 06:10:07;;;;;;;4.82;2.30;;;;;;;;;;5071168;28;20420;-79
2023/04/20 06:12:33;;;;;;;8.43;2.20;;;;;;;;;;5057692;28;20041;-79
2023/04/20 06:14:59;;;;;;;4.68;2.55;;;;;;;;;;5072736;28;20048;-79
2023/04/20 06:17:25;;;;;;;5.63;2.28;;;;;;;;;;5054647;28;20123;-79
2023/04/20 06:19:51;;;;;;;6.03;2.53;;;;;;;;;;5071148;28;20042;-78
2023/04/20 06:22:18;;;;;;;7.32;2.63;;;;;;;;;;5072156;28;20532;-80
2023/04/20 06:24:44;;;;;;;5.25;2.53;;;;;;;;;;5072487;28;20048;-79
2023/04/20 06:27:10;;;;;;;4.93;2.50;;;;;;;;;;5070712;28;20037;-80
2023/04/20 06:29:37;;;;;;;7.15;2.60;;;;;;;;;;5058651;28;20041;-80
2023/04/20 06:32:03;;;;;;;6.70;3.22;;;;;;;;;;5044197;28;20086;-80
2023/04/20 06:34:29;;;;;;;8.35;2.72;;;;;;;;;;5071612;28;20036;-79
2023/04/20 06:36:55;;;;;;;7.28;2.50;;;;;;;;;;5072315;28;20062;-80
2023/04/20 06:39:21;;;;;;;5.55;2.55;;;;;;;;;;5058297;28;20048;-80
2023/04/20 06:41:47;;;;;;;5.90;2.67;;;;;;;;;;5054457;28;20036;-80
2023/04/20 06:44:13;;;;;;;5.22;2.35;;;;;;;;;;5070430;28;20075;-79
2023/04/20 06:46:39;;;;;;;3.72;2.10;;;;;;;;;;5071510;28;20049;-80
2023/04/20 06:49:05;;;;;;;4.25;2.20;;;;;;;;;;5071180;28;20533;-80
2023/04/20 06:51:32;;;;;;;7.32;2.90;;;;;;;;;;5071348;28;20048;-79
2023/04/20 06:53:58;;;;;;;5.53;2.70;;;;;;;;;;5071233;28;20091;-80
2023/04/20 06:56:24;;;;;;;5.47;3.08;;;;;;;;;;5072512;28;20044;-80
2023/04/20 06:58:50;;;;;;;7.20;2.80;;;;;;;;;;5071329;28;20047;-80
2023/04/20 07:01:16;;;;;;;5.25;2.50;;;;;;;;;;5069503;28;20492;-80
2023/04/20 07:03:42;;;;;;;6.38;2.70;;;;;;;;;;5071198;28;20530;-80
2023/04/20 07:06:10;;;;;;;5.93;2.85;;;;;;;;;;5070808;28;20603;-80
2023/04/20 07:08:36;;;;;;;5.57;2.80;;;;;;;;;;5071324;28;20116;-80
2023/04/20 07:11:02;;;;;;;7.35;3.03;;;;;;;;;;5072029;28;20043;-80
2023/04/20 07:13:30;;;;;;;5.57;2.70;;;;;;;;;;5070297;28;20043;-80
2023/04/20 07:15:56;;;;;;;6.13;2.97;;;;;;;;;;5070756;28;20392;-80
2023/04/20 07:18:22;;;;;;;5.72;2.95;;;;;;;;;;5071459;28;20139;-80
2023/04/20 07:20:49;;;;;;;5.32;3.08;;;;;;;;;;5070633;28;20044;-80
2023/04/20 07:23:15;;;;;;;7.32;3.20;;;;;;;;;;5071193;28;20045;-80
2023/04/20 07:25:41;;;;;;;8.25;2.65;;;;;;;;;;5054096;28;20098;-80
2023/04/20 07:28:07;;;;;;;6.57;3.10;;;;;;;;;;5071970;28;20051;-80
2023/04/20 07:30:33;;;;;;;7.18;3.20;;;;;;;;;;5070384;28;20044;-80
2023/04/20 07:32:59;;;;;;;5.03;3.00;;;;;;;;;;5071251;28;20106;-80
2023/04/20 07:35:25;;;;;;;8.82;3.30;;;;;;;;;;5104116;28;20079;-80
2023/04/20 07:37:51;;;;;;;7.22;3.30;;;;;;;;;;5064336;28;20451;-80
2023/04/20 07:40:17;;;;;;;7.55;3.28;;;;;;;;;;5081588;28;20040;-80
2023/04/20 07:42:43;;;;;;;7.10;3.05;;;;;;;;;;5056455;28;20040;-80
2023/04/20 07:45:10;;;;;;;6.97;3.30;;;;;;;;;;5071887;28;20039;-80
2023/04/20 07:47:36;;;;;;;7.10;3.20;;;;;;;;;;5072827;28;20041;-80
2023/04/20 07:50:03;;;;;;;7.80;3.40;;;;;;;;;;5065383;28;20403;-80
2023/04/20 07:52:29;;;;;;;5.22;3.15;;;;;;;;;;5071496;28;20453;-80
2023/04/20 07:54:57;;;;;;;8.98;3.50;;;;;;;;;;5075455;28;20108;-80
2023/04/20 07:57:23;;;;;;;7.40;3.50;;;;;;;;;;5074450;28;20053;-80
2023/04/20 07:59:50;;;;;;;5.72;3.67;;;;;;;;;;5075431;28;20120;-80
2023/04/20 08:02:16;;;;;;;7.57;3.47;;;;;;;;;;5056045;28;20044;-80
2023/04/20 08:04:43;;;;;;;7.50;3.70;;;;;;;;;;5075095;28;20047;-80
2023/04/20 08:07:09;;;;;;;5.93;3.83;;;;;;;;;;5075818;28;20090;-80
2023/04/20 08:09:35;;;;;;;8.05;3.40;;;;;;;;;;5075912;28;20033;-80
2023/04/20 08:12:02;;;;;;;6.70;3.45;;;;;;;;;;5076307;28;20036;-80
2023/04/20 08:14:28;;;;;;;7.65;3.63;;;;;;;;;;5077463;28;20409;-80
2023/04/20 08:16:54;;;;;;;7.35;3.67;;;;;;;;;;5078728;28;20393;-80
2023/04/20 08:19:20;;;;;;;7.60;3.63;;;;;;;;;;5065546;28;20390;-80
2023/04/20 08:21:46;;;;;;;5.53;3.50;;;;;;;;;;5056505;28;20123;-80
2023/04/20 08:24:13;;;;;;;6.65;3.70;;;;;;;;;;5055247;28;20257;-80
2023/04/20 08:26:39;;;;;;;9.02;4.05;;;;;;;;;;5053942;28;20048;-80
2023/04/20 08:29:05;;;;;;;5.72;3.40;;;;;;;;;;5054530;28;20044;-80
2023/04/20 08:31:31;;;;;;;7.60;3.90;;;;;;;;;;5055320;28;20045;-80
2023/04/20 08:33:57;;;;;;;6.32;3.80;;;;;;;;;;5054278;28;20056;-80
2023/04/20 08:36:25;;;;;;;7.60;3.50;;;;;;;;;;5055907;28;20123;-80
2023/04/20 08:38:53;;;;;;;9.82;3.85;;;;;;;;;;5056841;28;20041;-80
2023/04/20 08:41:19;;;;;;;6.78;3.65;;;;;;;;;;5073249;28;20134;-80
2023/04/20 08:43:46;;;;;;;7.63;3.60;;;;;;;;;;5073189;28;20513;-80
2023/04/20 08:46:12;;;;;;;6.90;3.50;;;;;;;;;;5042880;28;20042;-80
2023/04/20 08:48:39;;;;;;;6.60;3.63;;;;;;;;;;5074038;28;20041;-80
2023/04/20 08:51:06;;;;;;;7.03;3.67;;;;;;;;;;5073186;28;20044;-80
2023/04/20 08:53:32;;;;;;;7.28;3.80;;;;;;;;;;5073044;28;20090;-80
2023/04/20 08:55:58;;;;;;;5.32;3.60;;;;;;;;;;5073235;28;20047;-80
2023/04/20 08:58:25;;;;;;;7.07;3.65;;;;;;;;;;5072967;28;20093;-80
2023/04/20 09:00:51;;;;;;;8.15;3.70;;;;;;;;;;5071922;28;20048;-80
2023/04/20 09:03:17;;;;;;;5.40;3.72;;;;;;;;;;5072847;28;20052;-80
2023/04/20 09:05:44;;;;;;;7.32;3.72;;;;;;;;;;5072330;28;20041;-79
2023/04/20 09:08:10;;;;;;;8.13;4.38;;;;;;;;;;5056080;28;20488;-80
2023/04/20 09:10:43;;;;;;;10.10;5.63;;;;;;;;;;5073484;28;20045;-80
2023/04/20 09:13:09;;;;;;;8.30;4.10;;;;;;;;;;5072626;28;20396;-80
2023/04/20 09:15:36;;;;;;;6.15;3.80;;;;;;;;;;5073221;28;20032;-80
2023/04/20 09:18:11;;;;;;;7.50;3.60;;;;;;;;;;5055982;28;20071;-80
2023/04/20 09:20:37;;;;;;;6.22;3.30;;;;;;;;;;5071675;28;20044;-80
2023/04/20 09:23:13;;;;;;;7.60;4.38;;;;;;;;;;5072032;28;20061;-80
2023/04/20 09:25:43;;;;;;;;;;;;;;;;;;5072155;28;20094;-80
2023/04/20 09:28:10;;;;;;;4.93;3.25;;;;;;;;;;5072437;28;20443;-80
2023/04/20 09:30:37;;;;;;;7.63;4.07;;;;;;;;;;5073088;28;20045;-80
2023/04/20 09:33:04;;;;;;;8.23;4.57;;;;;;;;;;5072399;28;20056;-80
2023/04/20 09:35:30;;;;;;;5.45;3.70;;;;;;;;;;5072170;28;20378;-80
2023/04/20 09:37:56;;;;;;;6.63;4.00;;;;;;;;;;5063510;28;20052;-80
2023/04/20 09:40:24;;;;;;;6.00;3.42;;;;;;;;;;5083531;28;20051;-80
2023/04/20 09:42:51;;;;;;;6.13;3.65;;;;;;;;;;5073910;28;20044;-80
2023/04/20 09:45:17;;;;;;;7.50;4.22;;;;;;;;;;5074267;28;20145;-80
2023/04/20 09:47:43;;;;;;;8.57;4.03;;;;;;;;;;5071594;28;20056;-80
2023/04/20 09:50:10;;;;;;;6.40;4.03;;;;;;;;;;5072646;28;20504;-80
2023/04/20 09:52:39;;;;;;;9.15;4.57;;;;;;;;;;5041026;28;20072;-80
2023/04/20 09:55:06;;;;;;;10.32;4.70;;;;;;;;;;5072708;28;20107;-80
2023/04/20 09:57:32;;;;;;;6.53;4.28;;;;;;;;;;5071147;28;20055;-80
2023/04/20 09:59:58;;;;;;;7.93;4.55;;;;;;;;;;5072826;28;20151;-80
2023/04/20 10:02:25;;;;;;;7.82;4.43;;;;;;;;;;5070337;28;20124;-80
2023/04/20 10:04:52;;;;;;;7.25;4.80;;;;;;;;;;5071344;28;20044;-80
2023/04/20 10:07:29;;;;;;;8.40;4.45;;;;;;;;;;5071501;28;20076;-80
2023/04/20 10:10:22;;;;;;;6.80;4.50;;;;;;;;;;5066131;28;20072;-80
2023/04/20 10:12:52;;;;;;;8.50;4.80;;;;;;;;;;5067491;28;20064;-80
2023/04/20 10:15:20;;;;;;;9.23;4.45;;;;;;;;;;5071513;28;20124;-79
2023/04/20 10:17:47;;;;;;;7.88;4.50;;;;;;;;;;5071229;28;20052;-80
2023/04/20 10:20:22;;;;;;;9.98;5.10;;;;;;;;;;5071951;28;20052;-80
2023/04/20 10:22:49;;;;;;;9.77;4.55;;;;;;;;;;5071155;28;20105;-80
2023/04/20 10:25:18;;;;;;;7.72;5.10;;;;;;;;;;5072885;28;20044;-80
2023/04/20 10:27:54;;;;;;;10.02;5.38;;;;;;;;;;5072795;28;20489;-80
2023/04/20 10:30:21;;;;;;;7.05;3.58;;;;;;;;;;5072203;28;20045;-80
2023/04/20 10:32:47;;;;;;;10.38;5.50;;;;;;;;;;5055759;28;20068;-80
2023/04/20 10:35:14;;;;;;;8.52;5.00;;;;;;;;;;5073112;28;20055;-80
2023/04/20 10:37:48;;;;;;;8.88;5.00;;;;;;;;;;5064803;28;20147;-80
2023/04/20 10:40:14;;;;;;;9.18;4.90;;;;;;;;;;5064889;28;20136;-80
2023/04/20 10:42:43;;;;;;;7.78;4.97;;;;;;;;;;5072433;28;20518;-80
2023/04/20 10:45:10;;;;;;;8.82;4.80;;;;;;;;;;5073144;28;20040;-80
2023/04/20 10:47:39;;;;;;;6.72;3.88;;;;;;;;;;5054370;28;20039;-80
2023/04/20 10:50:06;;;;;;;8.98;4.20;;;;;;;;;;5071595;28;20103;-80
2023/04/20 10:52:34;;;;;;;7.53;4.72;;;;;;;;;;5072275;28;20052;-80
2023/04/20 10:55:00;;;;;;;12.65;5.50;;;;;;;;;;5054929;28;20045;-80
2023/04/20 10:57:27;;;;;;;9.90;5.03;;;;;;;;;;5070642;28;20143;-80
2023/04/20 10:59:53;;;;;;;8.38;4.78;;;;;;;;;;5053873;28;20055;-80
2023/04/20 11:02:19;;;;;;;10.50;5.60;;;;;;;;;;5068256;28;20051;-80
2023/04/20 11:04:45;;;;;;;9.45;5.03;;;;;;;;;;5070121;28;20040;-80
2023/04/20 11:07:12;;;;;;;7.75;4.93;;;;;;;;;;5071952;28;20519;-80
2023/04/20 11:09:38;;;;;;;7.82;5.10;;;;;;;;;;5071666;28;20037;-81
2023/04/20 11:12:05;;;;;;;9.50;5.40;;;;;;;;;;5070648;28;20040;-81
2023/04/20 11:14:32;;;;;;;9.23;5.00;;;;;;;;;;5053792;28;20041;-81
2023/04/20 11:16:59;;;;;;;9.40;5.35;;;;;;;;;;5070398;28;20044;-80
2023/04/20 11:19:26;;;;;;;7.78;5.25;;;;;;;;;;5070949;28;20052;-81
2023/04/20 11:21:52;;;;;;;8.25;5.55;;;;;;;;;;5071615;28;20110;-80
2023/04/20 11:24:22;;;;;;;10.63;5.20;;;;;;;;;;5074420;28;20053;-80
2023/04/20 11:26:49;;;;;;;8.88;4.85;;;;;;;;;;5073956;28;20036;-80
2023/04/20 11:29:27;;;;;;;7.43;4.45;;;;;;;;;;5074480;28;20044;-80
2023/04/20 11:31:54;;;;;;;8.88;5.82;;;;;;;;;;5073879;28;20094;-80
2023/04/20 11:34:21;;;;;;;10.95;5.47;;;;;;;;;;5057522;28;20055;-80
2023/04/20 11:36:49;;;;;;;9.10;5.30;;;;;;;;;;5073664;28;20083;-80
2023/04/20 11:39:22;;;;;;;9.60;6.07;;;;;;;;;;5074267;28;20113;-80
2023/04/20 11:41:48;;;;;;;8.60;4.75;;;;;;;;;;5073712;28;20097;-81
2023/04/20 11:44:14;;;;;;;8.82;5.70;;;;;;;;;;5075295;28;20520;-81
2023/04/20 11:46:42;;;;;;;8.43;5.60;;;;;;;;;;5074844;28;20039;-81
2023/04/20 11:49:08;;;;;;;9.13;5.90;;;;;;;;;;5075026;28;20048;-81
2023/04/20 11:51:35;;;;;;;8.70;6.28;;;;;;;;;;5057287;28;20051;-81
2023/04/20 11:54:01;;;;;;;10.68;6.55;;;;;;;;;;5060668;28;20041;-81
2023/04/20 11:56:27;;;;;;;8.98;6.20;;;;;;;;;;5073773;28;20048;-81
2023/04/20 11:58:53;;;;;;;9.52;6.55;;;;;;;;;;5073134;28;20134;-81
2023/04/20 12:01:19;;;;;;;9.38;6.38;;;;;;;;;;5054458;28;20040;-81
2023/04/20 12:03:45;;;;;;;10.52;6.18;;;;;;;;;;5073229;28;20048;-81
2023/04/20 12:06:11;;;;;;;10.95;6.40;;;;;;;;;;5073415;28;20036;-81
2023/04/20 12:08:37;;;;;;;9.45;6.70;;;;;;;;;;5073604;28;20095;-81
2023/04/20 12:11:04;;;;;;;9.18;6.47;;;;;;;;;;5056413;28;20074;-81
2023/04/20 12:13:30;;;;;;;9.85;6.43;;;;;;;;;;5074612;28;20080;-82
2023/04/20 12:15:56;;;;;;;10.80;5.95;;;;;;;;;;5073139;28;20041;-81
2023/04/20 12:18:22;;;;;;;11.98;6.40;;;;;;;;;;5073415;28;20127;-81
2023/04/20 12:20:49;;;;;;;8.23;6.32;;;;;;;;;;5072907;28;20051;-80
2023/04/20 12:23:15;;;;;;;10.00;6.50;;;;;;;;;;5073214;28;20412;-80
2023/04/20 12:25:42;;;;;;;11.23;6.25;;;;;;;;;;5073694;28;20473;-81
2023/04/20 12:28:08;;;;;;;9.88;6.70;;;;;;;;;;5059693;28;20037;-81
2023/04/20 12:30:34;;;;;;;11.38;6.63;;;;;;;;;;5074312;28;20598;-81
2023/04/20 12:33:02;;;;;;;11.95;6.57;;;;;;;;;;5073109;28;20044;-81
2023/04/20 12:35:28;;;;;;;9.05;6.47;;;;;;;;;;5073094;28;20045;-81
2023/04/20 12:37:55;;;;;;;9.18;6.20;;;;;;;;;;5064444;28;20564;-81
2023/04/20 12:40:21;;;;;;;9.25;6.70;;;;;;;;;;5068621;28;20040;-81
2023/04/20 12:42:47;;;;;;;12.07;6.57;;;;;;;;;;5066117;28;20393;-81
2023/04/20 12:45:13;;;;;;;9.65;6.57;;;;;;;;;;5065322;28;20119;-81
2023/04/20 12:47:39;;;;;;;10.70;6.80;;;;;;;;;;5072585;28;20072;-81
2023/04/20 12:50:06;;;;;;;8.48;6.13;;;;;;;;;;5072384;28;20047;-81
2023/04/20 12:52:32;;;;;;;8.55;3.90;;;;;;;;;;5072575;28;20470;-81
2023/04/20 12:54:58;;;;;;;10.40;5.68;;;;;;;;;;5072607;28;20036;-82
2023/04/20 12:57:25;;;;;;;9.73;6.68;;;;;;;;;;5073624;28;20047;-81
2023/04/20 12:59:51;;;;;;;9.57;6.38;;;;;;;;;;5073205;28;20044;-82
2023/04/20 13:02:17;;;;;;;9.60;7.05;;;;;;;;;;5070007;28;20037;-81
2023/04/20 13:04:44;;;;;;;11.10;6.63;;;;;;;;;;5073402;28;20040;-81
2023/04/20 13:07:11;;;;;;;9.48;6.53;;;;;;;;;;5055371;28;20040;-81
2023/04/20 13:09:37;;;;;;;9.88;6.65;;;;;;;;;;5072252;28;20040;-81
2023/04/20 13:12:03;;;;;;;9.90;6.25;;;;;;;;;;5055419;28;20041;-81
2023/04/20 13:14:29;;;;;;;9.32;6.93;;;;;;;;;;5072202;28;20037;-81
2023/04/20 13:16:55;;;;;;;10.70;6.80;;;;;;;;;;5064550;28;20504;-82
2023/04/20 13:19:21;;;;;;;10.43;7.18;;;;;;;;;;5049393;28;20036;-81
2023/04/20 13:21:48;;;;;;;10.65;6.72;;;;;;;;;;5049752;28;20053;-82
2023/04/20 13:24:14;;;;;;;9.88;7.05;;;;;;;;;;5063562;28;20087;-81
2023/04/20 13:26:40;;;;;;;9.30;6.13;;;;;;;;;;5069363;28;20486;-81
2023/04/20 13:29:07;;;;;;;11.68;7.38;;;;;;;;;;5077766;28;20094;-81
2023/04/20 13:31:33;;;;;;;8.35;5.65;;;;;;;;;;5071957;28;20106;-82
2023/04/20 13:33:59;;;;;;;9.18;6.20;;;;;;;;;;5072865;28;20048;-81
2023/04/20 13:36:26;;;;;;;10.05;7.05;;;;;;;;;;5071917;28;20123;-81
2023/04/20 13:38:54;;;;;;;11.40;7.00;;;;;;;;;;5053652;28;20052;-81
2023/04/20 13:41:22;;;;;;;9.32;6.97;;;;;;;;;;5071912;28;20045;-81
2023/04/20 13:43:48;;;;;;;9.32;4.97;;;;;;;;;;5072682;28;20048;-81
2023/04/20 13:46:15;;;;;;;12.52;6.97;;;;;;;;;;5071121;28;20040;-81
2023/04/20 13:48:41;;;;;;;12.40;6.82;;;;;;;;;;5072824;28;20123;-81
2023/04/20 13:51:07;;;;;;;10.73;5.85;;;;;;;;;;5071096;28;20044;-81
2023/04/20 13:53:33;;;;;;;12.27;7.10;;;;;;;;;;5071366;28;20048;-82
2023/04/20 13:55:59;;;;;;;10.70;6.18;;;;;;;;;;5070988;28;20040;-81
2023/04/20 13:58:27;;;;;;;10.32;6.75;;;;;;;;;;5072584;28;20114;-81
2023/04/20 14:00:53;;;;;;;10.23;6.60;;;;;;;;;;5068815;28;20037;-81
2023/04/20 14:03:19;;;;;;;9.35;6.82;;;;;;;;;;5071449;28;20119;-81
2023/04/20 14:05:46;;;;;;;11.30;7.15;;;;;;;;;;5071177;28;20072;-81
2023/04/20 14:08:12;;;;;;;12.55;6.63;;;;;;;;;;5070863;28;20032;-82
2023/04/20 14:10:39;;;;;;;13.98;7.03;;;;;;;;;;5070983;28;20066;-81
2023/04/20 14:13:06;;;;;;;10.77;7.38;;;;;;;;;;5071975;28;20063;-80
2023/04/20 14:15:32;;;;;;;9.43;5.80;;;;;;;;;;5071153;28;20072;-81
2023/04/20 14:17:59;;;;;;;9.82;6.22;;;;;;;;;;5053707;28;20040;-81
2023/04/20 14:20:25;;;;;;;10.48;7.07;;;;;;;;;;5071303;28;20048;-82
2023/04/20 14:22:51;;;;;;;11.82;6.60;;;;;;;;;;5071955;28;20109;-81
2023/04/20 14:25:18;;;;;;;10.13;7.00;;;;;;;;;;5070841;28;20531;-81
2023/04/20 14:27:45;;;;;;;12.07;7.18;;;;;;;;;;5071244;28;20431;-81
2023/04/20 14:30:11;;;;;;;9.57;5.55;;;;;;;;;;5070349;28;20040;-81
2023/04/20 14:32:37;;;;;;;8.38;5.63;;;;;;;;;;5072258;28;20048;-81
2023/04/20 14:35:04;;;;;;;10.73;6.68;;;;;;;;;;5071695;28;20083;-81
2023/04/20 14:37:30;;;;;;;11.05;6.88;;;;;;;;;;5066098;28;20412;-81